Time;durP1;ratioP1;P1;durP2;ratioP2;P2;SDS_P1;SDS_P2;PMS_P1;PMS_P2;Temp;Humidity;BMP_temperature;BMP_pressure;BME280_temperature;BME280_humidity;BME280_pressure;Samples;Min_cycle;Max_cycle;Signal;HPM_P1;HPM_P2
2022/10/24 00:00:57;;;;;;;6.93;4.43;;;;;;;;;;4954010;28;20031;-85
2022/10/24 00:03:23;;;;;;;7.72;4.40;;;;;;;;;;4964269;28;20034;-84
2022/10/24 00:05:48;;;;;;;7.90;4.30;;;;;;;;;;4935592;28;20047;-84
2022/10/24 00:08:15;;;;;;;9.43;4.70;;;;;;;;;;4932899;28;20039;-85
2022/10/24 00:10:42;;;;;;;9.43;4.20;;;;;;;;;;4922380;28;20746;-84
2022/10/24 00:13:08;;;;;;;6.75;4.03;;;;;;;;;;4939975;28;20399;-85
2022/10/24 00:15:33;;;;;;;9.60;4.60;;;;;;;;;;4925935;28;20039;-85
2022/10/24 00:17:59;;;;;;;8.48;4.75;;;;;;;;;;4935908;28;20038;-87
2022/10/24 00:20:24;;;;;;;6.55;4.03;;;;;;;;;;4943697;28;20077;-87
2022/10/24 00:22:49;;;;;;;9.30;4.78;;;;;;;;;;4937999;28;20141;-87
2022/10/24 00:25:15;;;;;;;10.50;5.38;;;;;;;;;;4939757;28;20046;-86
2022/10/24 00:27:40;;;;;;;11.52;5.45;;;;;;;;;;4943721;28;20038;-87
2022/10/24 00:30:06;;;;;;;8.82;5.40;;;;;;;;;;4942530;28;20047;-87
2022/10/24 00:32:32;;;;;;;8.63;5.55;;;;;;;;;;4936629;28;20113;-87
2022/10/24 00:34:57;;;;;;;10.32;5.38;;;;;;;;;;4937911;28;20035;-88
2022/10/24 00:37:23;;;;;;;10.10;5.45;;;;;;;;;;4925377;28;20561;-88
2022/10/24 00:39:48;;;;;;;9.23;5.78;;;;;;;;;;4928498;28;20031;-87
2022/10/24 00:42:14;;;;;;;8.68;5.25;;;;;;;;;;4941606;28;20122;-86
2022/10/24 00:44:40;;;;;;;9.23;5.53;;;;;;;;;;4943215;28;20057;-89
2022/10/24 00:47:10;;;;;;;10.55;5.20;;;;;;;;;;4955464;28;20071;-87
2022/10/24 00:49:47;;;;;;;10.65;5.25;;;;;;;;;;4945060;28;20054;-88
2022/10/24 00:52:14;;;;;;;13.18;5.28;;;;;;;;;;4943993;28;20039;-87
2022/10/24 00:54:41;;;;;;;9.90;5.60;;;;;;;;;;4928318;28;20376;-87
2022/10/24 00:57:23;;;;;;;9.70;5.38;;;;;;;;;;4933669;28;20049;-87
2022/10/24 00:59:54;;;;;;;9.95;5.22;;;;;;;;;;4928626;28;20035;-87
2022/10/24 01:02:20;;;;;;;10.15;5.15;;;;;;;;;;4942350;28;20043;-88
2022/10/24 01:04:47;;;;;;;8.63;4.70;;;;;;;;;;4931034;28;20130;-87
2022/10/24 01:07:31;;;;;;;7.90;4.95;;;;;;;;;;4953307;28;20554;-86
2022/10/24 01:10:22;;;;;;;9.55;5.30;;;;;;;;;;4983859;28;20040;-87
2022/10/24 01:12:56;;;;;;;10.32;5.10;;;;;;;;;;4944177;28;20473;-84
2022/10/24 01:15:36;;;;;;;7.72;4.50;;;;;;;;;;4959210;28;20034;-84
2022/10/24 01:18:22;;;;;;;8.35;4.78;;;;;;;;;;4954064;28;20093;-83
2022/10/24 01:21:03;;;;;;;6.90;4.40;;;;;;;;;;4967436;28;20037;-84
2022/10/24 01:23:52;;;;;;;8.60;4.75;;;;;;;;;;4952449;28;20108;-84
2022/10/24 01:26:53;;;;;;;8.40;5.03;;;;;;;;;;4961463;28;20035;-83
2022/10/24 01:29:22;;;;;;;9.73;4.93;;;;;;;;;;4950517;28;20071;-84
2022/10/24 01:31:58;;;;;;;10.00;5.28;;;;;;;;;;4967690;28;20174;-85
2022/10/24 01:34:34;;;;;;;9.18;4.78;;;;;;;;;;4956389;28;20037;-85
2022/10/24 01:37:22;;;;;;;8.88;4.90;;;;;;;;;;4963066;28;20122;-85
2022/10/24 01:39:50;;;;;;;9.70;4.95;;;;;;;;;;4962556;28;20045;-84
2022/10/24 01:42:16;;;;;;;;;;;;;;;;;;4969398;28;20117;-84
2022/10/24 01:44:47;;;;;;;11.18;4.80;;;;;;;;;;4954400;28;19915;-85
2022/10/24 01:47:22;;;;;;;8.35;4.97;;;;;;;;;;4961074;28;20042;-85
2022/10/24 01:49:54;;;;;;;9.55;5.32;;;;;;;;;;4945358;28;20032;-84
2022/10/24 01:52:20;;;;;;;8.32;5.00;;;;;;;;;;4951117;28;20049;-84
2022/10/24 01:54:47;;;;;;;8.77;4.95;;;;;;;;;;4953361;28;20039;-85
2022/10/24 01:57:13;;;;;;;8.85;4.82;;;;;;;;;;4952517;28;20128;-84
2022/10/24 01:59:42;;;;;;;8.85;4.63;;;;;;;;;;4957941;28;20485;-85
2022/10/24 02:02:24;;;;;;;8.05;5.00;;;;;;;;;;4948433;28;20353;-85
2022/10/24 02:04:55;;;;;;;6.72;4.35;;;;;;;;;;4956049;28;20034;-85
2022/10/24 02:07:21;;;;;;;8.85;4.70;;;;;;;;;;4965803;28;20043;-86
2022/10/24 02:09:52;;;;;;;8.43;4.63;;;;;;;;;;4955414;28;20038;-85
2022/10/24 02:12:18;;;;;;;7.95;4.68;;;;;;;;;;4962430;28;20031;-85
2022/10/24 02:14:59;;;;;;;8.57;4.80;;;;;;;;;;4965241;28;20031;-85
2022/10/24 02:17:24;;;;;;;7.05;4.50;;;;;;;;;;4956672;28;20046;-85
2022/10/24 02:19:50;;;;;;;7.93;4.25;;;;;;;;;;4958497;28;20040;-85
2022/10/24 02:22:29;;;;;;;9.20;4.50;;;;;;;;;;4955932;28;20054;-85
2022/10/24 02:25:00;;;;;;;9.02;4.90;;;;;;;;;;4951819;28;20418;-85
2022/10/24 02:27:32;;;;;;;7.65;4.30;;;;;;;;;;4946107;28;20030;-85
2022/10/24 02:30:02;;;;;;;8.73;4.40;;;;;;;;;;4963438;28;20513;-84
2022/10/24 02:32:31;;;;;;;8.25;4.35;;;;;;;;;;4969849;28;20034;-84
2022/10/24 02:34:57;;;;;;;7.00;4.00;;;;;;;;;;4966519;28;20459;-85
2022/10/24 02:37:24;;;;;;;6.88;4.47;;;;;;;;;;4964654;28;20089;-84
2022/10/24 02:39:50;;;;;;;8.63;4.50;;;;;;;;;;4946360;28;20038;-84
2022/10/24 02:42:16;;;;;;;6.63;3.83;;;;;;;;;;4944920;28;20030;-85
2022/10/24 02:44:42;;;;;;;8.80;4.32;;;;;;;;;;4955426;28;20052;-86
2022/10/24 02:47:10;;;;;;;9.13;4.28;;;;;;;;;;4960935;28;21030;-86
2022/10/24 02:49:35;;;;;;;;;;;;;;;;;;4956341;28;20638;-86
2022/10/24 02:52:01;;;;;;;9.07;4.00;;;;;;;;;;4963234;28;19917;-86
2022/10/24 02:54:26;;;;;;;7.50;4.40;;;;;;;;;;4962988;28;20034;-86
2022/10/24 02:56:58;;;;;;;10.13;4.07;;;;;;;;;;4947545;28;20030;-85
2022/10/24 02:59:23;;;;;;;7.75;3.92;;;;;;;;;;4955758;28;20071;-85
2022/10/24 03:01:48;;;;;;;7.85;4.35;;;;;;;;;;4945050;28;20520;-86
2022/10/24 03:04:14;;;;;;;6.35;3.60;;;;;;;;;;4964639;28;20432;-86
2022/10/24 03:06:40;;;;;;;8.15;3.97;;;;;;;;;;4968895;28;20047;-85
2022/10/24 03:09:05;;;;;;;6.93;3.53;;;;;;;;;;4947858;28;20513;-85
2022/10/24 03:11:31;;;;;;;7.97;4.35;;;;;;;;;;4954290;28;20035;-85
2022/10/24 03:13:56;;;;;;;7.30;4.30;;;;;;;;;;4971670;28;20061;-86
2022/10/24 03:16:21;;;;;;;6.93;4.10;;;;;;;;;;4952414;28;20057;-85
2022/10/24 03:18:49;;;;;;;6.45;3.88;;;;;;;;;;4954404;28;20414;-85
2022/10/24 03:21:14;;;;;;;;;;;;;;;;;;4944990;28;20486;-85
2022/10/24 03:23:40;;;;;;;7.22;3.78;;;;;;;;;;4969585;28;19989;-85
2022/10/24 03:26:05;;;;;;;7.55;4.00;;;;;;;;;;4947382;28;20034;-85
2022/10/24 03:28:31;;;;;;;9.05;4.00;;;;;;;;;;4965099;28;20038;-85
2022/10/24 03:30:56;;;;;;;7.80;4.22;;;;;;;;;;4951902;28;20557;-85
2022/10/24 03:33:24;;;;;;;6.70;3.92;;;;;;;;;;4953904;28;20173;-85
2022/10/24 03:35:52;;;;;;;6.80;4.25;;;;;;;;;;4952536;28;20039;-85
2022/10/24 03:38:18;;;;;;;6.68;3.90;;;;;;;;;;4969005;28;20399;-85
2022/10/24 03:40:43;;;;;;;6.80;3.88;;;;;;;;;;4964698;28;20034;-85
2022/10/24 03:43:08;;;;;;;6.32;3.92;;;;;;;;;;4963618;28;20035;-85
2022/10/24 03:45:34;;;;;;;7.07;3.70;;;;;;;;;;4951876;28;20039;-85
2022/10/24 03:47:59;;;;;;;6.32;3.83;;;;;;;;;;4962675;28;20039;-86
2022/10/24 03:50:25;;;;;;;7.20;3.70;;;;;;;;;;4949628;28;20042;-85
2022/10/24 03:52:50;;;;;;;5.53;3.65;;;;;;;;;;4963278;28;20038;-85
2022/10/24 03:55:16;;;;;;;8.80;3.78;;;;;;;;;;4969862;28;20050;-85
2022/10/24 03:57:41;;;;;;;10.20;3.55;;;;;;;;;;4964630;28;20081;-85
2022/10/24 04:00:07;;;;;;;6.13;3.30;;;;;;;;;;4953031;28;20521;-85
2022/10/24 04:02:32;;;;;;;6.38;3.60;;;;;;;;;;4945068;28;20074;-86
2022/10/24 04:04:58;;;;;;;7.30;3.40;;;;;;;;;;4962241;28;20030;-85
2022/10/24 04:07:23;;;;;;;5.88;3.60;;;;;;;;;;4945830;28;20100;-85
2022/10/24 04:09:48;;;;;;;6.93;3.47;;;;;;;;;;4959033;28;20431;-85
2022/10/24 04:12:14;;;;;;;7.10;3.72;;;;;;;;;;4943713;28;20062;-86
2022/10/24 04:14:39;;;;;;;7.47;3.53;;;;;;;;;;4947191;28;20038;-86
2022/10/24 04:17:05;;;;;;;6.20;3.53;;;;;;;;;;4949530;28;20042;-85
2022/10/24 04:19:30;;;;;;;5.72;3.35;;;;;;;;;;4952313;28;20459;-85
2022/10/24 04:21:55;;;;;;;5.45;3.08;;;;;;;;;;4967102;28;20053;-86
2022/10/24 04:24:21;;;;;;;4.72;2.97;;;;;;;;;;4951464;28;20161;-86
2022/10/24 04:26:46;;;;;;;5.13;3.00;;;;;;;;;;4952466;28;20035;-85
2022/10/24 04:29:11;;;;;;;5.07;3.10;;;;;;;;;;4968225;28;20060;-85
2022/10/24 04:31:37;;;;;;;6.68;3.15;;;;;;;;;;4958622;28;20038;-85
2022/10/24 04:34:04;;;;;;;5.95;3.50;;;;;;;;;;4947635;28;20041;-85
2022/10/24 04:36:29;;;;;;;8.03;3.40;;;;;;;;;;4948351;28;20446;-85
2022/10/24 04:38:57;;;;;;;8.40;3.30;;;;;;;;;;4954239;28;20046;-85
2022/10/24 04:41:22;;;;;;;7.60;3.67;;;;;;;;;;4952497;28;20037;-84
2022/10/24 04:43:48;;;;;;;6.80;3.63;;;;;;;;;;4968674;28;20493;-85
2022/10/24 04:46:13;;;;;;;6.57;3.30;;;;;;;;;;4956305;28;20046;-85
2022/10/24 04:48:38;;;;;;;5.88;3.45;;;;;;;;;;4956542;28;20554;-85
2022/10/24 04:51:04;;;;;;;7.90;3.45;;;;;;;;;;4961510;28;20498;-85
2022/10/24 04:53:29;;;;;;;6.40;3.17;;;;;;;;;;4950069;28;20038;-85
2022/10/24 04:55:55;;;;;;;7.15;3.58;;;;;;;;;;4960233;28;20560;-85
2022/10/24 04:58:23;;;;;;;6.72;3.42;;;;;;;;;;4948474;28;20776;-85
2022/10/24 05:00:49;;;;;;;4.95;3.20;;;;;;;;;;4944087;28;20494;-85
2022/10/24 05:03:16;;;;;;;6.28;3.65;;;;;;;;;;4964952;28;20031;-85
2022/10/24 05:05:42;;;;;;;;;;;;;;;;;;4951521;28;20128;-86
2022/10/24 05:08:07;;;;;;;8.02;3.30;;;;;;;;;;4963026;28;20032;-85
2022/10/24 05:10:33;;;;;;;7.03;3.90;;;;;;;;;;4956230;28;20035;-85
2022/10/24 05:12:58;;;;;;;7.47;3.70;;;;;;;;;;4948272;28;20058;-85
2022/10/24 05:15:23;;;;;;;9.00;3.63;;;;;;;;;;4952857;28;20073;-85
2022/10/24 05:17:49;;;;;;;6.95;3.58;;;;;;;;;;4951068;28;20038;-84
2022/10/24 05:20:15;;;;;;;7.05;3.50;;;;;;;;;;4945134;28;20122;-85
2022/10/24 05:22:40;;;;;;;7.40;3.88;;;;;;;;;;4953480;28;20461;-85
2022/10/24 05:25:06;;;;;;;6.80;3.67;;;;;;;;;;4951204;28;20123;-84
2022/10/24 05:27:31;;;;;;;7.88;4.32;;;;;;;;;;4941605;28;20086;-85
2022/10/24 05:29:57;;;;;;;7.10;4.13;;;;;;;;;;4952611;28;20122;-84
2022/10/24 05:32:23;;;;;;;7.50;3.78;;;;;;;;;;4950535;28;20671;-85
2022/10/24 05:34:49;;;;;;;6.75;3.80;;;;;;;;;;4962690;28;20038;-84
2022/10/24 05:37:14;;;;;;;6.82;3.83;;;;;;;;;;4951232;28;20518;-85
2022/10/24 05:39:40;;;;;;;7.88;3.67;;;;;;;;;;4961949;28;20038;-84
2022/10/24 05:42:05;;;;;;;6.53;3.75;;;;;;;;;;4950233;28;20049;-85
2022/10/24 05:44:31;;;;;;;7.18;3.45;;;;;;;;;;4955901;28;20305;-86
2022/10/24 05:46:56;;;;;;;6.38;3.75;;;;;;;;;;4951338;28;20058;-85
2022/10/24 05:49:21;;;;;;;9.50;3.90;;;;;;;;;;4961673;28;20492;-85
2022/10/24 05:51:47;;;;;;;6.53;3.63;;;;;;;;;;4954063;28;20377;-85
2022/10/24 05:54:12;;;;;;;6.93;4.10;;;;;;;;;;4960629;28;20039;-84
2022/10/24 05:56:37;;;;;;;7.57;4.43;;;;;;;;;;4952513;28;20044;-84
2022/10/24 05:59:03;;;;;;;8.13;3.53;;;;;;;;;;4947040;28;20401;-83
2022/10/24 06:01:29;;;;;;;6.65;3.90;;;;;;;;;;4952204;28;20474;-84
2022/10/24 06:03:55;;;;;;;6.13;3.53;;;;;;;;;;4963227;28;20042;-84
2022/10/24 06:06:20;;;;;;;7.30;4.18;;;;;;;;;;4951895;28;20447;-84
2022/10/24 06:08:46;;;;;;;7.95;3.67;;;;;;;;;;4954357;28;20042;-83
2022/10/24 06:11:11;;;;;;;55.42;7.40;;;;;;;;;;4951112;28;20073;-86
2022/10/24 06:13:37;;;;;;;10.82;4.45;;;;;;;;;;4950865;28;20030;-85
2022/10/24 06:16:04;;;;;;;17.30;5.50;;;;;;;;;;4942083;28;20512;-83
2022/10/24 06:18:30;;;;;;;7.40;3.60;;;;;;;;;;4963847;28;20022;-83
2022/10/24 06:20:59;;;;;;;8.07;3.80;;;;;;;;;;4956503;28;20453;-82
2022/10/24 06:23:24;;;;;;;8.43;4.30;;;;;;;;;;4945238;28;20404;-84
2022/10/24 06:25:49;;;;;;;7.45;3.38;;;;;;;;;;4943822;28;20372;-84
2022/10/24 06:28:15;;;;;;;8.00;4.00;;;;;;;;;;4948256;28;20035;-84
2022/10/24 06:30:40;;;;;;;7.88;3.75;;;;;;;;;;4952809;28;20064;-83
2022/10/24 06:33:05;;;;;;;18.55;4.85;;;;;;;;;;4953607;28;20068;-84
2022/10/24 06:35:31;;;;;;;9.95;4.47;;;;;;;;;;4962824;28;20038;-84
2022/10/24 06:37:56;;;;;;;13.13;4.53;;;;;;;;;;4955860;28;20042;-85
2022/10/24 06:40:22;;;;;;;8.25;4.00;;;;;;;;;;4952061;28;20417;-84
2022/10/24 06:42:47;;;;;;;8.23;4.18;;;;;;;;;;4970806;28;20038;-84
2022/10/24 06:45:12;;;;;;;9.60;4.35;;;;;;;;;;4947533;28;20096;-84
2022/10/24 06:47:38;;;;;;;7.40;4.07;;;;;;;;;;4952740;28;20085;-84
2022/10/24 06:50:04;;;;;;;7.97;3.88;;;;;;;;;;4957708;28;20039;-85
2022/10/24 06:52:29;;;;;;;8.95;3.70;;;;;;;;;;4952836;28;20034;-84
2022/10/24 06:54:58;;;;;;;8.55;3.45;;;;;;;;;;4955744;28;20081;-85
2022/10/24 06:57:23;;;;;;;7.57;3.67;;;;;;;;;;4952862;28;20113;-85
2022/10/24 06:59:48;;;;;;;6.72;3.55;;;;;;;;;;4969891;28;20113;-85
2022/10/24 07:02:15;;;;;;;8.57;3.70;;;;;;;;;;4950588;28;20033;-84
2022/10/24 07:04:40;;;;;;;6.72;3.80;;;;;;;;;;4964339;28;20395;-82
2022/10/24 07:07:06;;;;;;;8.63;3.85;;;;;;;;;;4953403;28;20054;-85
2022/10/24 07:09:31;;;;;;;7.35;4.15;;;;;;;;;;4954188;28;20042;-85
2022/10/24 07:11:57;;;;;;;7.75;4.03;;;;;;;;;;4972378;28;20477;-85
2022/10/24 07:14:24;;;;;;;6.40;3.80;;;;;;;;;;4963964;28;20513;-84
2022/10/24 07:16:50;;;;;;;9.73;3.97;;;;;;;;;;4964412;28;20045;-84
2022/10/24 07:19:15;;;;;;;10.23;4.05;;;;;;;;;;4951947;28;20149;-85
2022/10/24 07:21:41;;;;;;;7.68;4.20;;;;;;;;;;4952748;28;20401;-85
2022/10/24 07:24:06;;;;;;;8.98;4.35;;;;;;;;;;4970886;28;20045;-85
2022/10/24 07:26:32;;;;;;;6.60;3.47;;;;;;;;;;4957983;28;20042;-85
2022/10/24 07:28:59;;;;;;;6.25;3.33;;;;;;;;;;4959098;28;20045;-84
2022/10/24 07:31:26;;;;;;;;;;;;;;;;;;4948584;28;20401;-83
2022/10/24 07:33:52;;;;;;;7.72;3.70;;;;;;;;;;4950442;28;20021;-85
2022/10/24 07:36:22;;;;;;;7.68;4.00;;;;;;;;;;4954101;28;20042;-86
2022/10/24 07:38:49;;;;;;;8.38;3.53;;;;;;;;;;4958279;28;20035;-85
2022/10/24 07:41:15;;;;;;;7.10;3.90;;;;;;;;;;4962739;28;20551;-85
2022/10/24 07:43:40;;;;;;;6.43;3.15;;;;;;;;;;4962509;28;20070;-85
2022/10/24 07:46:07;;;;;;;11.02;3.60;;;;;;;;;;4942246;28;20120;-85
2022/10/24 07:48:33;;;;;;;7.25;3.58;;;;;;;;;;4945309;28;20039;-85
2022/10/24 07:50:58;;;;;;;6.90;3.17;;;;;;;;;;4963168;28;20108;-85
2022/10/24 07:53:26;;;;;;;5.45;3.13;;;;;;;;;;4953394;28;20035;-85
2022/10/24 07:55:53;;;;;;;6.72;3.50;;;;;;;;;;4964452;28;20038;-85
2022/10/24 07:58:18;;;;;;;6.43;3.05;;;;;;;;;;4953326;28;20458;-81
2022/10/24 08:00:44;;;;;;;5.10;2.47;;;;;;;;;;4964249;28;20113;-81
2022/10/24 08:03:09;;;;;;;6.18;2.78;;;;;;;;;;4951802;28;20035;-81
2022/10/24 08:05:38;;;;;;;6.88;3.08;;;;;;;;;;4953462;28;20046;-81
2022/10/24 08:08:03;;;;;;;6.65;2.78;;;;;;;;;;4952705;28;20039;-82
2022/10/24 08:10:29;;;;;;;6.75;2.85;;;;;;;;;;4959442;28;20031;-83
2022/10/24 08:12:54;;;;;;;5.15;2.60;;;;;;;;;;4961189;28;20039;-83
2022/10/24 08:15:19;;;;;;;6.88;2.88;;;;;;;;;;4962096;28;20045;-83
2022/10/24 08:17:45;;;;;;;5.38;2.70;;;;;;;;;;4965843;28;20153;-84
2022/10/24 08:20:10;;;;;;;6.13;2.53;;;;;;;;;;4971139;28;20422;-84
2022/10/24 08:22:36;;;;;;;5.55;2.25;;;;;;;;;;4952691;28;20033;-83
2022/10/24 08:25:04;;;;;;;9.13;2.60;;;;;;;;;;4962997;28;20046;-83
2022/10/24 08:27:30;;;;;;;5.28;2.45;;;;;;;;;;4952182;28;20133;-84
2022/10/24 08:29:55;;;;;;;5.32;2.72;;;;;;;;;;4944140;28;20069;-83
2022/10/24 08:32:21;;;;;;;4.68;2.20;;;;;;;;;;4958166;28;20057;-83
2022/10/24 08:34:46;;;;;;;6.65;2.10;;;;;;;;;;4963571;28;20138;-83
2022/10/24 08:37:11;;;;;;;5.45;2.08;;;;;;;;;;4955601;28;20429;-84
2022/10/24 08:39:37;;;;;;;3.95;1.70;;;;;;;;;;4960724;28;20045;-84
2022/10/24 08:42:04;;;;;;;5.75;2.35;;;;;;;;;;4958968;28;20042;-84
2022/10/24 08:44:54;;;;;;;5.32;2.05;;;;;;;;;;4940346;28;20030;-85
2022/10/24 08:47:29;;;;;;;8.68;2.22;;;;;;;;;;4949437;28;20069;-84
2022/10/24 08:50:15;;;;;;;4.35;1.85;;;;;;;;;;4952913;28;20458;-84
2022/10/24 08:53:14;;;;;;;7.25;2.00;;;;;;;;;;4949603;28;20113;-84
2022/10/24 08:55:54;;;;;;;5.20;1.75;;;;;;;;;;4937973;28;20529;-83
2022/10/24 08:58:23;;;;;;;8.30;1.90;;;;;;;;;;4962675;28;20129;-85
2022/10/24 09:00:50;;;;;;;6.20;1.90;;;;;;;;;;4962733;28;20054;-84
2022/10/24 09:03:32;;;;;;;4.38;1.63;;;;;;;;;;4952047;28;20030;-84
2022/10/24 09:06:03;;;;;;;4.88;1.70;;;;;;;;;;4950620;28;20042;-84
2022/10/24 09:08:32;;;;;;;4.82;1.90;;;;;;;;;;4961814;28;20402;-84
2022/10/24 09:11:00;;;;;;;6.65;2.25;;;;;;;;;;4967565;28;20121;-82
2022/10/24 09:13:27;;;;;;;5.47;1.80;;;;;;;;;;4968841;28;20041;-83
2022/10/24 09:15:53;;;;;;;5.88;1.83;;;;;;;;;;4951749;28;20504;-81
2022/10/24 09:18:23;;;;;;;7.65;2.28;;;;;;;;;;4952755;28;20538;-84
2022/10/24 09:20:49;;;;;;;4.28;1.73;;;;;;;;;;4956072;28;20037;-85
2022/10/24 09:23:15;;;;;;;4.32;1.73;;;;;;;;;;4952739;28;20038;-89
2022/10/24 09:25:44;;;;;;;6.50;2.10;;;;;;;;;;4951905;28;20038;-90
2022/10/24 09:28:12;;;;;;;4.00;1.70;;;;;;;;;;4950660;28;20136;-89
2022/10/24 09:30:38;;;;;;;5.82;1.75;;;;;;;;;;4950482;28;20049;-88
2022/10/24 09:33:27;;;;;;;5.93;1.67;;;;;;;;;;4961456;28;20043;-89
2022/10/24 09:36:01;;;;;;;4.93;1.65;;;;;;;;;;4947104;28;20494;-89
2022/10/24 09:38:33;;;;;;;5.88;1.60;;;;;;;;;;4969025;28;20587;-88
2022/10/24 09:41:19;;;;;;;4.57;1.63;;;;;;;;;;4941661;28;20940;-89
2022/10/24 09:43:54;;;;;;;3.67;1.52;;;;;;;;;;4935979;28;20093;-88
2022/10/24 09:46:25;;;;;;;3.72;1.45;;;;;;;;;;4948508;28;20117;-88
2022/10/24 09:48:59;;;;;;;5.82;1.77;;;;;;;;;;4965583;28;20048;-89
2022/10/24 09:51:32;;;;;;;5.53;1.90;;;;;;;;;;4960409;28;20026;-89
2022/10/24 09:54:25;;;;;;;4.40;1.65;;;;;;;;;;4959073;28;20120;-88
2022/10/24 09:57:11;;;;;;;7.25;2.00;;;;;;;;;;4969247;28;20042;-88
2022/10/24 09:59:44;;;;;;;4.13;1.40;;;;;;;;;;4959354;28;20063;-88
2022/10/24 10:02:09;;;;;;;4.88;1.10;;;;;;;;;;4965173;28;20053;-88
2022/10/24 10:04:36;;;;;;;5.75;1.55;;;;;;;;;;4961419;28;20038;-88
2022/10/24 10:07:15;;;;;;;7.15;1.88;;;;;;;;;;4941009;28;20058;-87
2022/10/24 10:09:56;;;;;;;7.43;1.63;;;;;;;;;;4966621;28;20114;-86
2022/10/24 10:12:41;;;;;;;4.15;1.58;;;;;;;;;;4961171;28;20049;-86
2022/10/24 10:15:28;;;;;;;5.35;1.98;;;;;;;;;;4970618;28;20039;-86
2022/10/24 10:17:57;;;;;;;5.00;1.60;;;;;;;;;;4964273;28;20047;-87
2022/10/24 10:20:31;;;;;;;5.65;1.60;;;;;;;;;;4948460;28;20374;-86
2022/10/24 10:23:36;;;;;;;5.43;1.58;;;;;;;;;;4965267;28;20043;-87
2022/10/24 10:26:16;;;;;;;4.65;1.38;;;;;;;;;;4976508;28;20057;-86
2022/10/24 10:28:58;;;;;;;5.00;1.40;;;;;;;;;;4957340;28;20041;-87
2022/10/24 10:31:28;;;;;;;3.88;1.70;;;;;;;;;;4964611;28;20033;-87
2022/10/24 10:34:09;;;;;;;3.95;1.55;;;;;;;;;;4957361;28;20042;-87
2022/10/24 10:36:46;;;;;;;6.65;1.65;;;;;;;;;;4961158;28;20034;-87
2022/10/24 10:39:22;;;;;;;4.93;1.23;;;;;;;;;;4954792;28;20500;-87
2022/10/24 10:42:02;;;;;;;5.63;1.40;;;;;;;;;;4951438;28;20360;-87
2022/10/24 10:44:36;;;;;;;4.95;1.60;;;;;;;;;;4956901;28;20069;-87
2022/10/24 10:47:33;;;;;;;3.50;1.23;;;;;;;;;;4961612;28;20406;-86
2022/10/24 10:49:59;;;;;;;3.70;1.23;;;;;;;;;;4973012;28;20034;-87
2022/10/24 10:52:32;;;;;;;7.47;1.60;;;;;;;;;;4957632;28;20474;-88
2022/10/24 10:55:07;;;;;;;5.43;1.20;;;;;;;;;;4957388;28;20157;-88
2022/10/24 10:57:48;;;;;;;4.70;1.50;;;;;;;;;;4967100;28;20049;-87
2022/10/24 11:00:18;;;;;;;5.25;1.40;;;;;;;;;;4950683;28;20034;-87
2022/10/24 11:03:40;;;;;;;4.68;1.40;;;;;;;;;;4949535;28;20391;-88
2022/10/24 11:06:25;;;;;;;3.75;1.58;;;;;;;;;;4894360;29;20051;-86
2022/10/24 11:09:06;;;;;;;4.00;1.30;;;;;;;;;;4912004;29;20048;-89
2022/10/24 11:11:36;;;;;;;4.82;1.55;;;;;;;;;;4951843;28;20423;-89
2022/10/24 11:14:17;;;;;;;4.63;1.10;;;;;;;;;;4953375;28;20414;-88
2022/10/24 11:16:42;;;;;;;6.95;1.40;;;;;;;;;;4967031;28;20133;-88
2022/10/24 11:19:23;;;;;;;4.47;1.27;;;;;;;;;;4938199;28;20070;-90
2022/10/24 11:21:49;;;;;;;6.40;1.67;;;;;;;;;;4939806;28;20426;-89
2022/10/24 11:24:18;;;;;;;4.07;1.20;;;;;;;;;;4938184;28;20165;-90
2022/10/24 11:27:02;;;;;;;3.70;1.00;;;;;;;;;;4928481;28;20045;-88
2022/10/24 11:29:35;;;;;;;5.57;1.30;;;;;;;;;;4947333;28;20089;-88
2022/10/24 11:32:22;;;;;;;4.57;1.50;;;;;;;;;;4935442;28;20039;-88
2022/10/24 11:34:57;;;;;;;4.28;1.42;;;;;;;;;;4947460;28;20051;-88
2022/10/24 11:37:49;;;;;;;7.20;1.58;;;;;;;;;;4953628;28;20038;-88
2022/10/24 11:40:18;;;;;;;5.53;0.90;;;;;;;;;;4941791;28;20031;-85
2022/10/24 11:42:52;;;;;;;3.42;1.27;;;;;;;;;;4951103;28;20034;-89
2022/10/24 11:45:20;;;;;;;2.78;1.00;;;;;;;;;;4936508;28;20039;-87
2022/10/24 11:47:48;;;;;;;7.95;1.20;;;;;;;;;;4937783;28;20065;-88
2022/10/24 11:50:29;;;;;;;4.65;1.05;;;;;;;;;;4949740;28;20465;-88
2022/10/24 11:52:59;;;;;;;6.07;1.35;;;;;;;;;;4938479;28;20031;-88
2022/10/24 11:55:37;;;;;;;3.92;1.08;;;;;;;;;;4936048;28;20039;-90
2022/10/24 11:58:07;;;;;;;3.45;1.25;;;;;;;;;;4952842;28;20041;-87
2022/10/24 12:00:47;;;;;;;4.28;1.13;;;;;;;;;;4964115;28;20042;-90
2022/10/24 12:03:34;;;;;;;6.03;1.33;;;;;;;;;;4949918;28;20035;-88
2022/10/24 12:06:20;;;;;;;4.32;0.90;;;;;;;;;;4959586;28;20137;-88
2022/10/24 12:09:07;;;;;;;3.78;1.13;;;;;;;;;;4972202;28;20362;-91
2022/10/24 12:11:42;;;;;;;5.80;1.25;;;;;;;;;;4963128;28;20034;-88
2022/10/24 12:14:29;;;;;;;3.83;1.05;;;;;;;;;;4955293;28;20065;-88
2022/10/24 12:17:28;;;;;;;5.05;1.20;;;;;;;;;;4958692;28;20051;-89
2022/10/24 12:19:54;;;;;;;5.80;1.08;;;;;;;;;;4957000;28;20367;-89
2022/10/24 12:22:25;;;;;;;2.75;0.93;;;;;;;;;;4968662;28;20042;-87
2022/10/24 12:25:03;;;;;;;3.92;1.20;;;;;;;;;;4953271;28;20389;-86
2022/10/24 12:27:31;;;;;;;5.15;1.10;;;;;;;;;;4955030;28;20089;-88
2022/10/24 12:30:02;;;;;;;3.70;1.33;;;;;;;;;;4963566;28;20702;-88
2022/10/24 12:32:37;;;;;;;4.85;1.20;;;;;;;;;;4945335;28;20030;-88
2022/10/24 12:35:25;;;;;;;4.15;1.20;;;;;;;;;;4951063;28;20410;-89
2022/10/24 12:37:51;;;;;;;5.38;1.10;;;;;;;;;;4964167;28;20030;-89
2022/10/24 12:40:47;;;;;;;3.38;0.98;;;;;;;;;;4947667;28;20113;-89
2022/10/24 12:43:34;;;;;;;5.30;1.13;;;;;;;;;;4971997;28;20033;-88
2022/10/24 12:46:23;;;;;;;3.65;0.93;;;;;;;;;;4970958;28;20026;-89
2022/10/24 12:48:57;;;;;;;5.47;0.90;;;;;;;;;;4952543;28;20034;-89
2022/10/24 12:51:38;;;;;;;2.28;0.80;;;;;;;;;;4961823;28;20034;-89
2022/10/24 12:54:09;;;;;;;2.72;0.85;;;;;;;;;;4969653;28;20050;-90
2022/10/24 12:57:00;;;;;;;6.05;1.10;;;;;;;;;;4958427;28;20030;-89
2022/10/24 12:59:34;;;;;;;3.08;1.20;;;;;;;;;;4978874;28;20034;-88
2022/10/24 13:02:11;;;;;;;3.40;1.00;;;;;;;;;;4979173;28;20458;-89
2022/10/24 13:05:02;;;;;;;4.20;1.20;;;;;;;;;;4971036;28;20034;-88
2022/10/24 13:07:44;;;;;;;4.28;1.10;;;;;;;;;;4961866;28;20370;-88
2022/10/24 13:10:32;;;;;;;4.65;1.40;;;;;;;;;;4972131;28;20176;-88
2022/10/24 13:13:39;;;;;;;2.60;1.02;;;;;;;;;;4950604;28;20117;-88
2022/10/24 13:16:26;;;;;;;3.35;1.10;;;;;;;;;;4888867;29;20100;-88
2022/10/24 13:19:06;;;;;;;4.32;1.38;;;;;;;;;;4891068;29;20500;-87
2022/10/24 13:21:34;;;;;;;3.00;1.05;;;;;;;;;;4890305;29;20046;-88
2022/10/24 13:24:11;;;;;;;5.82;1.02;;;;;;;;;;4875244;29;20136;-88
2022/10/24 13:26:50;;;;;;;5.73;1.10;;;;;;;;;;4872039;29;20047;-89
2022/10/24 13:29:24;;;;;;;3.70;0.93;;;;;;;;;;4876413;29;20059;-89
2022/10/24 13:31:51;;;;;;;4.30;1.33;;;;;;;;;;4885544;29;20060;-87
2022/10/24 13:34:24;;;;;;;3.60;1.42;;;;;;;;;;4877729;29;20040;-89
2022/10/24 13:37:03;;;;;;;4.53;1.13;;;;;;;;;;4873179;29;20515;-88
2022/10/24 13:39:38;;;;;;;3.80;1.00;;;;;;;;;;4886160;29;20558;-87
2022/10/24 13:42:10;;;;;;;5.15;1.17;;;;;;;;;;4861664;29;20124;-89
2022/10/24 13:45:14;;;;;;;5.82;1.60;;;;;;;;;;4872811;29;20517;-88
2022/10/24 13:47:44;;;;;;;4.63;1.20;;;;;;;;;;4895390;29;20044;-88
2022/10/24 13:50:27;;;;;;;3.63;0.80;;;;;;;;;;4904724;29;20458;-88
2022/10/24 13:52:58;;;;;;;3.00;1.00;;;;;;;;;;4917236;29;20123;-89
2022/10/24 13:55:37;;;;;;;3.50;0.95;;;;;;;;;;4918948;29;20075;-88
2022/10/24 13:58:05;;;;;;;3.97;1.00;;;;;;;;;;4908331;29;20036;-89
2022/10/24 14:00:33;;;;;;;3.25;1.02;;;;;;;;;;4923296;29;20062;-87
2022/10/24 14:03:02;;;;;;;2.35;0.82;;;;;;;;;;4895734;29;20036;-88
2022/10/24 14:07:49;;;;;;;5.53;1.30;;;;;;;;;;5098332;27;20385;-89
2022/10/24 14:10:18;;;;;;;3.92;1.13;;;;;;;;;;5054378;28;20066;-90
2022/10/24 14:12:44;;;;;;;3.60;1.20;;;;;;;;;;5027816;28;20029;-89
2022/10/24 14:15:20;;;;;;;5.65;1.30;;;;;;;;;;5043524;28;21003;-89
2022/10/24 14:18:13;;;;;;;6.85;1.17;;;;;;;;;;5053797;28;20395;-89
2022/10/24 14:20:38;;;;;;;4.55;1.20;;;;;;;;;;5056713;28;20432;-89
2022/10/24 14:23:22;;;;;;;4.78;1.00;;;;;;;;;;5071892;28;20031;-89
2022/10/24 14:25:56;;;;;;;2.92;0.90;;;;;;;;;;5069449;28;20036;-90
2022/10/24 14:28:25;;;;;;;4.28;1.65;;;;;;;;;;5058723;28;20039;-88
2022/10/24 14:30:59;;;;;;;6.88;1.35;;;;;;;;;;5063945;28;20094;-87
2022/10/24 14:33:29;;;;;;;4.47;1.00;;;;;;;;;;5103933;28;20535;-88
2022/10/24 14:35:57;;;;;;;5.45;1.30;;;;;;;;;;5069605;28;20040;-89
2022/10/24 14:38:23;;;;;;;3.75;1.00;;;;;;;;;;5051651;28;20422;-89
2022/10/24 14:40:49;;;;;;;5.05;1.05;;;;;;;;;;5070355;28;20036;-89
2022/10/24 14:43:21;;;;;;;3.47;1.33;;;;;;;;;;5051571;28;20041;-89
2022/10/24 14:46:07;;;;;;;3.40;1.13;;;;;;;;;;5060929;28;20499;-89
2022/10/24 14:48:34;;;;;;;3.97;1.10;;;;;;;;;;5048129;28;20517;-88
2022/10/24 14:51:24;;;;;;;3.15;1.10;;;;;;;;;;5061157;28;20476;-88
2022/10/24 14:53:50;;;;;;;3.65;1.30;;;;;;;;;;5076360;28;20510;-88
2022/10/24 14:56:33;;;;;;;3.15;1.42;;;;;;;;;;5053293;28;20033;-88
2022/10/24 14:59:00;;;;;;;3.35;1.15;;;;;;;;;;5054092;28;20120;-88
2022/10/24 15:01:26;;;;;;;4.75;1.15;;;;;;;;;;5059392;28;20070;-88
2022/10/24 15:04:03;;;;;;;3.72;1.77;;;;;;;;;;5081773;28;20382;-88
2022/10/24 15:06:41;;;;;;;3.10;1.30;;;;;;;;;;5045897;28;20041;-89
2022/10/24 15:09:12;;;;;;;3.55;1.50;;;;;;;;;;5096608;28;20059;-89